Jump to content

  •  

DELTA AIRLINES FLIGHT DL881 FLOWN ON 08-10-2017 BY CAPTAIN JIM BOERMAN

Pilot StatsCaptain Jim Boerman (LDP136) • 4,686.4 total hours • 1,423 total flights [View Logbook]
FLIGHT DETAILS
StatusReceived and approved on 2017-08-10 at 15:08:01
Origin AirportHartsfield - Jackson Atlanta I (KATL) • Atlanta, Georgia, United States (1,026 feet MSL)
Filed Flight PlanFLIGHT PLANNER OFFLINE
Destination AirportAustin Bergstrom Intl (KAUS) • Austin, Texas, United States (542 feet MSL)
Alternate AirportWaco Regl (KACT) • Waco, Texas, United States (516 feet MSL)
AirlineDelta Airlines
AircraftBoeing 757-200 | Winglets (75W / B757-200)
FS Aircraft UsedQWSim Boeing 757-200WL Delta N688DL QWHDT
Cruising AltitudeFL360
Distance Flown705 nautical miles
Passengers Onboard100 passengers (53.76% full)
DEPARTURE DETAILS
Time Out13:35:09
Taxi Data209,050 lbs total with 24,760 lbs of fuel onboard
Takeoff Data13:47:34 (12 minutes after leaving gate/ramp) • 207,472 lbs total • 8° pitch at 169 knots
Departure METARKATL 101552Z 16003KT 10SM BKN018 BKN030 26/22 A3020 RMK AO2 SLP219 T02610222
ARRIVAL DETAILS
Landing Data14:42:25 • 191,629 lbs total • 3° pitch doing 131 knots at a rate of -69.97 feet/minute with 6,446 lbs of fuel onboard
Time In14:51:00 (9 minutes after landing)
Ramp Weight190,736 lbs total
Total Fuel Used18,314 lbs
Total Block Time02:10:45 (2.2 hours) while 21 minutes were spent on the ground
Arrival METARKAUS 101853Z 00000KT 10SM SCT046 SCT200 34/22 A3007 RMK AO2 SLP169 T03390222
MISCELLANEOUS DETAILS
LiveDISPATCH Version4.8.3.1
FS Version
FSUIPC Version4.93
OS VersionWindows 7 32-bit
Screen Resolution1920 x 1080
Pilot's CommentsNo Comments Reported
FLIGHT MAP